createdAt,value
2018-02-25T00:02:20.052Z,159.30
2018-02-25T00:04:47.495Z,355.00
2018-02-25T00:07:14.961Z,187.00
2018-02-25T00:09:42.412Z,203.55
2018-02-25T00:12:09.881Z,386.48
2018-02-25T00:14:37.348Z,315.60
2018-02-25T00:17:04.813Z,468.55
2018-02-25T00:19:32.287Z,260.95
2018-02-25T00:21:59.702Z,397.77
2018-02-25T00:24:27.167Z,402.30
2018-02-25T00:26:54.670Z,467.52
2018-02-25T00:29:22.091Z,226.37
2018-02-25T00:31:49.550Z,471.83
2018-02-25T00:34:17.005Z,476.17
2018-02-25T00:36:44.463Z,281.73
2018-02-25T00:39:11.910Z,473.37
2018-02-25T00:41:39.362Z,474.30
2018-02-25T00:44:06.815Z,311.75
2018-02-25T00:46:34.354Z,166.98
2018-02-25T00:49:01.831Z,186.95
2018-02-25T00:51:29.583Z,372.83
2018-02-25T00:53:57.043Z,323.38
2018-02-25T00:56:24.498Z,203.65
2018-02-25T00:58:51.934Z,282.95
2018-02-25T01:01:19.431Z,301.80
2018-02-25T01:03:46.880Z,324.90
2018-02-25T01:06:14.327Z,275.70
2018-02-25T01:08:41.794Z,348.40
2018-02-25T01:11:09.634Z,465.83
2018-02-25T01:13:37.087Z,464.95
2018-02-25T01:16:04.762Z,372.52
2018-02-25T01:18:32.213Z,257.98
2018-02-25T01:20:59.659Z,330.10
2018-02-25T01:23:27.120Z,393.70
2018-02-25T01:25:54.567Z,373.25
2018-02-25T01:28:22.069Z,463.33
2018-02-25T01:30:49.520Z,92.37
2018-02-25T01:33:17.070Z,363.05
2018-02-25T01:35:44.519Z,413.90
2018-02-25T01:38:11.990Z,370.73
2018-02-25T01:40:39.444Z,367.87
2018-02-25T01:43:06.895Z,234.68
2018-02-25T01:45:34.667Z,349.67
2018-02-25T01:48:02.539Z,460.05
2018-02-25T01:50:29.987Z,310.83
2018-02-25T01:52:57.439Z,284.73
2018-02-25T01:55:24.898Z,456.95
2018-02-25T01:57:52.352Z,149.70
2018-02-25T02:00:19.806Z,193.02
2018-02-25T02:02:47.257Z,275.65
2018-02-25T02:05:14.707Z,368.17
2018-02-25T02:07:42.162Z,294.17
2018-02-25T02:10:09.615Z,361.27
2018-02-25T02:12:37.071Z,284.67
2018-02-25T02:15:04.519Z,287.70
2018-02-25T02:17:31.983Z,451.37
2018-02-25T02:19:59.418Z,365.40
2018-02-25T02:22:27.653Z,205.18
2018-02-25T02:24:55.206Z,367.37
2018-02-25T02:27:22.665Z,449.48
2018-02-25T02:29:50.210Z,295.10
2018-02-25T02:32:17.676Z,359.92
2018-02-25T02:34:45.140Z,460.83
2018-02-25T02:37:12.596Z,225.07
2018-02-25T02:39:40.035Z,173.10
2018-02-25T02:42:07.491Z,259.95
2018-02-25T02:44:34.935Z,306.17
2018-02-25T02:47:02.395Z,356.50
2018-02-25T02:49:29.844Z,314.67
2018-02-25T02:51:57.305Z,447.90
2018-02-25T02:54:24.764Z,457.33
2018-02-25T02:56:52.212Z,177.68
2018-02-25T02:59:19.780Z,292.40
2018-02-25T03:01:47.259Z,367.50
2018-02-25T03:04:14.712Z,442.40
2018-02-25T03:06:42.162Z,340.45
2018-02-25T03:09:09.642Z,274.88
2018-02-25T03:11:37.078Z,214.93
2018-02-25T03:14:04.536Z,328.42
2018-02-25T03:16:31.981Z,97.57
2018-02-25T03:18:59.658Z,329.20
2018-02-25T03:21:27.627Z,229.45
2018-02-25T03:23:55.186Z,250.48
2018-02-25T03:26:22.634Z,365.08
2018-02-25T03:28:50.103Z,304.08
2018-02-25T03:31:17.559Z,133.07
2018-02-25T03:33:45.021Z,202.02
2018-02-25T03:36:12.468Z,376.55
2018-02-25T03:38:40.027Z,213.75
2018-02-25T03:41:08.117Z,176.27
2018-02-25T03:43:35.566Z,295.30
2018-02-25T03:46:03.021Z,439.45
2018-02-25T03:48:30.483Z,262.17
2018-02-25T03:50:58.044Z,352.00
2018-02-25T03:53:25.497Z,179.38
2018-02-25T03:55:53.542Z,308.05
2018-02-25T03:58:21.015Z,299.80
2018-02-25T04:00:48.459Z,436.20
2018-02-25T04:03:15.915Z,434.23
2018-02-25T04:05:43.376Z,330.77
2018-02-25T04:08:10.830Z,211.02
2018-02-25T04:10:38.279Z,319.50
2018-02-25T04:13:05.833Z,251.80
2018-02-25T04:15:33.272Z,222.50
2018-02-25T04:18:00.722Z,347.27
2018-02-25T04:20:28.172Z,228.90
2018-02-25T04:22:56.395Z,39.22
2018-02-25T04:25:23.854Z,422.05
2018-02-25T04:27:51.309Z,118.90
2018-02-25T04:30:18.755Z,189.27
2018-02-25T04:32:46.215Z,174.45
2018-02-25T04:35:13.662Z,270.08
2018-02-25T04:37:41.118Z,349.20
2018-02-25T04:40:08.562Z,98.85
2018-02-25T04:42:36.028Z,144.05
2018-02-25T04:45:03.471Z,313.15
2018-02-25T04:47:30.930Z,430.45
2018-02-25T04:49:58.382Z,109.32
2018-02-25T04:52:25.835Z,190.80
2018-02-25T04:54:54.054Z,274.65
2018-02-25T04:57:21.500Z,260.33
2018-02-25T04:59:48.959Z,300.85
2018-02-25T05:02:16.412Z,292.58
2018-02-25T05:04:43.873Z,198.93
2018-02-25T05:07:11.314Z,314.17
2018-02-25T05:09:38.776Z,433.55
2018-02-25T05:12:06.223Z,269.13
2018-02-25T05:14:33.711Z,226.12
2018-02-25T05:17:01.159Z,216.05
2018-02-25T05:19:28.611Z,201.48
2018-02-25T05:21:56.059Z,200.20
2018-02-25T05:24:23.514Z,430.65
2018-02-25T05:26:50.959Z,435.48
2018-02-25T05:29:18.414Z,312.40
2018-02-25T05:31:45.878Z,224.07
2018-02-25T05:34:13.330Z,433.30
2018-02-25T05:36:40.775Z,266.50
2018-02-25T05:39:08.234Z,277.60
2018-02-25T05:41:35.687Z,313.35
2018-02-25T05:44:04.032Z,134.27
2018-02-25T05:46:31.498Z,270.25
2018-02-25T05:48:59.023Z,369.08
2018-02-25T05:51:26.479Z,275.38
2018-02-25T05:53:53.936Z,278.48
2018-02-25T05:56:21.378Z,280.85
2018-02-25T05:58:48.839Z,188.98
2018-02-25T06:01:16.288Z,167.07
2018-02-25T06:03:43.744Z,128.80
2018-02-25T06:06:11.186Z,219.70
2018-02-25T06:08:38.646Z,174.05
2018-02-25T06:11:06.094Z,174.98
2018-02-25T06:13:34.410Z,258.02
2018-02-25T06:16:01.867Z,206.73
2018-02-25T06:18:29.338Z,224.35
2018-02-25T06:20:56.786Z,266.73
2018-02-25T06:23:24.346Z,253.05
2018-02-25T06:25:51.800Z,311.48
2018-02-25T06:28:19.768Z,255.27
2018-02-25T06:30:47.215Z,345.23
2018-02-25T06:33:14.667Z,324.25
2018-02-25T06:35:42.111Z,274.83
2018-02-25T06:38:09.558Z,260.63
2018-02-25T06:40:37.022Z,164.62
2018-02-25T06:43:04.479Z,256.08
2018-02-25T06:45:31.930Z,24.08
2018-02-25T06:47:59.378Z,128.18
2018-02-25T06:50:26.846Z,221.98
2018-02-25T06:52:54.290Z,120.50
2018-02-25T06:55:21.751Z,254.48
2018-02-25T06:57:49.198Z,92.28
2018-02-25T07:00:16.647Z,181.48
2018-02-25T07:02:44.859Z,180.20
2018-02-25T07:05:12.310Z,292.05
2018-02-25T07:07:39.769Z,316.00
2018-02-25T07:10:07.473Z,303.98
2018-02-25T07:12:34.919Z,273.87
2018-02-25T07:15:02.377Z,88.32
2018-02-25T07:17:29.930Z,422.02
2018-02-25T07:19:57.489Z,288.42
2018-02-25T07:22:24.939Z,203.37
2018-02-25T07:24:52.396Z,420.92
2018-02-25T07:27:19.956Z,170.80
2018-02-25T07:29:47.489Z,287.02
2018-02-25T07:32:14.927Z,352.58
2018-02-25T07:34:43.243Z,235.15
2018-02-25T07:37:10.700Z,112.80
2018-02-25T07:39:38.152Z,321.05
2018-02-25T07:42:05.599Z,155.65
2018-02-25T07:44:33.051Z,138.48
2018-02-25T07:47:00.507Z,364.23
2018-02-25T07:49:27.971Z,279.58
2018-02-25T07:51:55.427Z,372.63
2018-02-25T07:54:22.882Z,277.45
2018-02-25T07:56:50.337Z,449.30
2018-02-25T07:59:17.797Z,257.95
2018-02-25T08:01:45.256Z,451.37
2018-02-25T08:04:12.698Z,452.88
2018-02-25T08:06:40.138Z,348.15
2018-02-25T08:09:07.590Z,469.67
2018-02-25T08:11:35.795Z,376.15
2018-02-25T08:14:03.254Z,198.85
2018-02-25T08:16:30.702Z,389.87
2018-02-25T08:18:58.156Z,397.17
2018-02-25T08:21:25.613Z,497.87
2018-02-25T08:23:53.074Z,502.02
2018-02-25T08:26:20.523Z,387.02
2018-02-25T08:28:48.000Z,508.02
2018-02-25T08:31:15.439Z,516.90
2018-02-25T08:33:42.888Z,528.17
2018-02-25T08:36:10.345Z,528.10
2018-02-25T08:38:37.803Z,530.85
2018-02-25T08:41:05.259Z,533.20
2018-02-25T08:43:32.721Z,549.12
2018-02-25T08:46:00.179Z,564.17
2018-02-25T08:48:27.643Z,573.15
2018-02-25T08:50:55.105Z,584.80
2018-02-25T08:53:22.553Z,581.67
2018-02-25T08:55:50.004Z,585.90
2018-02-25T08:58:17.450Z,584.53
2018-02-25T09:00:44.923Z,608.25
2018-02-25T09:03:12.383Z,591.65
2018-02-25T09:05:39.846Z,613.67
2018-02-25T09:08:07.295Z,620.05
2018-02-25T09:10:34.754Z,626.25
2018-02-25T09:13:02.205Z,626.25
2018-02-25T09:15:29.664Z,639.60
2018-02-25T09:17:57.126Z,639.25
2018-02-25T09:20:24.576Z,620.85
2018-02-25T09:22:52.036Z,609.42
2018-02-25T09:25:19.504Z,613.45
2018-02-25T09:27:46.951Z,619.45
2018-02-25T09:30:14.404Z,617.70
2018-02-25T09:32:41.854Z,613.42
2018-02-25T09:35:09.303Z,632.80
2018-02-25T09:37:36.751Z,519.50
2018-02-25T09:40:04.207Z,611.33
2018-02-25T09:42:32.439Z,621.80
2018-02-25T09:44:59.894Z,636.75
2018-02-25T09:47:27.397Z,632.22
2018-02-25T09:49:54.804Z,632.85
2018-02-25T09:52:22.255Z,623.05
2018-02-25T09:54:49.714Z,622.03
2018-02-25T09:57:17.166Z,621.30
2018-02-25T09:59:44.627Z,623.13
2018-02-25T10:02:12.070Z,622.95
2018-02-25T10:04:39.529Z,624.08
2018-02-25T10:07:06.966Z,635.28
2018-02-25T10:09:34.418Z,84.33
2018-02-25T10:12:01.867Z,588.50
2018-02-25T10:14:29.324Z,565.07
2018-02-25T10:16:56.783Z,553.20
2018-02-25T10:19:24.235Z,575.00
2018-02-25T10:21:51.695Z,580.30
2018-02-25T10:24:19.150Z,581.57
2018-02-25T10:26:46.625Z,565.03
2018-02-25T10:29:14.099Z,568.50
2018-02-25T10:31:41.555Z,561.03
2018-02-25T10:34:09.777Z,564.27
2018-02-25T10:36:37.998Z,569.75
2018-02-25T10:39:05.446Z,602.75
2018-02-25T10:41:32.902Z,612.40
2018-02-25T10:44:00.353Z,614.15
2018-02-25T10:46:27.812Z,612.08
2018-02-25T10:48:55.270Z,605.17
2018-02-25T10:51:22.724Z,604.83
2018-02-25T10:53:50.174Z,604.62
2018-02-25T10:56:17.639Z,608.90
2018-02-25T10:58:45.088Z,608.30
2018-02-25T11:01:12.543Z,602.30
2018-02-25T11:03:40.896Z,604.90
2018-02-25T11:06:09.137Z,607.58
2018-02-25T11:08:36.579Z,606.00
2018-02-25T11:11:04.031Z,29.42
2018-02-25T11:13:31.474Z,73.03
2018-02-25T11:15:58.939Z,425.42
2018-02-25T11:18:26.397Z,195.87
2018-02-25T11:20:53.860Z,579.22
2018-02-25T11:23:22.075Z,573.50
2018-02-25T11:25:49.518Z,1.80
2018-02-25T11:28:16.965Z,461.80
2018-02-25T11:30:44.420Z,599.17
2018-02-25T11:33:11.862Z,605.00
2018-02-25T11:35:39.327Z,618.83
2018-02-25T11:38:06.783Z,625.75
2018-02-25T11:40:34.252Z,632.92
2018-02-25T11:43:02.631Z,633.55
2018-02-25T11:45:30.087Z,631.17
2018-02-25T11:47:57.539Z,629.35
2018-02-25T11:50:25.000Z,627.03
2018-02-25T11:52:52.438Z,629.33
2018-02-25T11:55:20.080Z,623.60
2018-02-25T11:57:47.573Z,618.50
2018-02-25T12:00:15.017Z,626.47
2018-02-25T12:02:42.477Z,625.50
2018-02-25T12:05:09.939Z,626.65
2018-02-25T12:07:37.495Z,624.78
2018-02-25T12:10:05.068Z,620.90
2018-02-25T12:12:32.518Z,613.37
2018-02-25T12:14:59.967Z,614.28
2018-02-25T12:17:27.425Z,615.30
2018-02-25T12:19:54.874Z,618.15
2018-02-25T12:22:22.333Z,624.28
2018-02-25T12:24:50.117Z,620.72
2018-02-25T12:27:17.656Z,617.65
2018-02-25T12:29:45.118Z,616.03
2018-02-25T12:32:12.568Z,610.47
2018-02-25T12:34:40.031Z,613.97
2018-02-25T12:37:07.486Z,614.33
2018-02-25T12:39:34.939Z,620.47
2018-02-25T12:42:02.413Z,618.22
2018-02-25T12:44:30.059Z,619.58
2018-02-25T12:46:58.338Z,617.63
2018-02-25T12:49:25.979Z,618.22
2018-02-25T12:51:53.955Z,625.30
2018-02-25T12:54:21.404Z,624.38
2018-02-25T12:56:48.890Z,629.72
2018-02-25T12:59:16.346Z,635.25
2018-02-25T13:01:43.802Z,628.65
2018-02-25T13:04:11.259Z,630.15
2018-02-25T13:06:38.922Z,633.90
2018-02-25T13:09:06.398Z,646.50
2018-02-25T13:11:33.927Z,654.87
2018-02-25T13:14:01.483Z,661.25
2018-02-25T13:16:28.988Z,658.40
2018-02-25T13:18:56.402Z,656.92
2018-02-25T13:21:23.870Z,656.95
2018-02-25T13:23:51.328Z,648.20
2018-02-25T13:26:18.786Z,646.00
2018-02-25T13:28:46.240Z,639.08
2018-02-25T13:31:13.687Z,630.75
2018-02-25T13:33:41.145Z,633.60
2018-02-25T13:36:08.600Z,631.72
2018-02-25T13:38:36.059Z,630.70
2018-02-25T13:41:03.516Z,632.75
2018-02-25T13:43:30.965Z,633.25
2018-02-25T13:45:58.404Z,630.90
2018-02-25T13:48:25.859Z,619.85
2018-02-25T13:50:53.307Z,604.97
2018-02-25T13:53:20.767Z,576.87
2018-02-25T13:55:48.215Z,575.35
2018-02-25T13:58:15.671Z,574.35
2018-02-25T14:00:43.120Z,573.65
2018-02-25T14:03:10.579Z,564.83
2018-02-25T14:05:38.015Z,563.60
2018-02-25T14:08:06.235Z,562.47
2018-02-25T14:10:33.679Z,562.55
2018-02-25T14:13:01.132Z,559.03
2018-02-25T14:15:28.580Z,559.10
2018-02-25T14:17:56.035Z,558.10
2018-02-25T14:20:23.476Z,552.47
2018-02-25T14:22:51.695Z,553.78
2018-02-25T14:25:19.139Z,551.58
2018-02-25T14:27:46.595Z,553.80
2018-02-25T14:30:14.073Z,551.30
2018-02-25T14:32:41.718Z,556.58
2018-02-25T14:35:09.172Z,557.05
2018-02-25T14:37:36.625Z,562.00
2018-02-25T14:40:04.084Z,557.25
2018-02-25T14:42:31.536Z,555.13
2018-02-25T14:44:58.982Z,555.42
2018-02-25T14:47:26.447Z,551.90
2018-02-25T14:49:53.939Z,554.35
2018-02-25T14:52:21.396Z,445.83
2018-02-25T14:54:48.846Z,536.35
2018-02-25T14:57:16.318Z,535.67
2018-02-25T14:59:43.874Z,538.80
2018-02-25T15:02:11.428Z,537.15
2018-02-25T15:04:38.878Z,539.37
2018-02-25T15:07:06.445Z,419.75
2018-02-25T15:09:33.894Z,532.28
2018-02-25T15:12:01.356Z,526.17
2018-02-25T15:14:28.803Z,531.67
2018-02-25T15:16:56.262Z,406.33
2018-02-25T15:19:23.719Z,419.37
2018-02-25T15:21:51.174Z,438.08
2018-02-25T15:24:18.635Z,437.65
2018-02-25T15:26:46.602Z,425.75
2018-02-25T15:29:14.063Z,521.22
2018-02-25T15:31:41.552Z,437.67
2018-02-25T15:34:08.983Z,517.70
2018-02-25T15:36:36.434Z,521.60
2018-02-25T15:39:04.027Z,436.98
2018-02-25T15:41:31.555Z,422.33
2018-02-25T15:43:59.015Z,423.25
2018-02-25T15:46:26.471Z,418.98
2018-02-25T15:48:54.028Z,516.25
2018-02-25T15:51:21.474Z,360.08
2018-02-25T15:53:49.687Z,365.65
2018-02-25T15:56:17.106Z,519.50
2018-02-25T15:58:44.559Z,421.90
2018-02-25T16:01:12.030Z,424.95
2018-02-25T16:03:39.595Z,518.55
2018-02-25T16:06:07.045Z,411.40
2018-02-25T16:08:34.507Z,438.55
2018-02-25T16:11:01.959Z,518.40
2018-02-25T16:13:30.234Z,517.40
2018-02-25T16:15:57.690Z,439.40
2018-02-25T16:18:25.147Z,423.60
2018-02-25T16:20:52.594Z,434.35
2018-02-25T16:23:20.156Z,510.87
2018-02-25T16:25:47.611Z,511.83
2018-02-25T16:28:15.171Z,508.85
2018-02-25T16:30:42.735Z,401.90
2018-02-25T16:33:10.510Z,495.95
2018-02-25T16:35:38.275Z,507.75
2018-02-25T16:38:05.832Z,501.80
2018-02-25T16:40:33.384Z,409.37
2018-02-25T16:43:01.239Z,400.27
2018-02-25T16:45:28.804Z,175.60
2018-02-25T16:47:56.757Z,240.18
2018-02-25T16:50:24.216Z,499.83
2018-02-25T16:52:51.674Z,417.30
2018-02-25T16:55:19.126Z,398.80
2018-02-25T16:57:46.583Z,292.50
2018-02-25T17:00:14.035Z,66.87
2018-02-25T17:02:41.492Z,495.45
2018-02-25T17:05:08.939Z,156.37
2018-02-25T17:07:36.385Z,356.30
2018-02-25T17:10:03.839Z,279.25
2018-02-25T17:12:31.287Z,154.70
2018-02-25T17:14:59.508Z,322.73
2018-02-25T17:17:26.975Z,259.17
2018-02-25T17:19:54.430Z,356.63
2018-02-25T17:22:21.929Z,121.68
2018-02-25T17:24:49.347Z,310.30
2018-02-25T17:27:16.803Z,373.50
2018-02-25T17:29:44.255Z,312.98
2018-02-25T17:32:11.711Z,129.63
2018-02-25T17:34:39.184Z,406.77
2018-02-25T17:37:06.630Z,333.80
2018-02-25T17:39:34.088Z,438.15
2018-02-25T17:42:01.534Z,380.02
2018-02-25T17:44:28.999Z,397.52
2018-02-25T17:46:56.452Z,494.17
2018-02-25T17:49:23.907Z,399.40
2018-02-25T17:51:51.363Z,194.65
2018-02-25T17:54:18.818Z,287.85
2018-02-25T17:56:46.269Z,475.98
2018-02-25T17:59:13.730Z,328.17
2018-02-25T18:01:42.012Z,372.02
2018-02-25T18:04:09.466Z,481.87
2018-02-25T18:06:36.917Z,300.13
2018-02-25T18:09:04.375Z,393.70
2018-02-25T18:11:31.822Z,376.35
2018-02-25T18:13:59.281Z,259.60
2018-02-25T18:16:26.748Z,317.90
2018-02-25T18:18:54.209Z,316.98
2018-02-25T18:21:21.672Z,358.40
2018-02-25T18:23:49.126Z,233.60
2018-02-25T18:26:16.581Z,476.52
2018-02-25T18:28:44.030Z,277.52
2018-02-25T18:31:11.488Z,366.02
2018-02-25T18:33:39.127Z,126.90
2018-02-25T18:36:06.567Z,165.37
2018-02-25T18:38:34.018Z,372.23
2018-02-25T18:41:01.565Z,395.12
2018-02-25T18:43:29.695Z,467.85
2018-02-25T18:45:57.143Z,291.75
2018-02-25T18:48:24.606Z,362.25
2018-02-25T18:50:52.051Z,324.40
2018-02-25T18:53:19.512Z,399.27
2018-02-25T18:55:46.960Z,375.30
2018-02-25T18:58:14.415Z,469.60
2018-02-25T19:00:41.878Z,142.27
2018-02-25T19:03:09.324Z,219.10
2018-02-25T19:05:36.783Z,475.73
2018-02-25T19:08:04.234Z,433.08
2018-02-25T19:10:31.695Z,371.85
2018-02-25T19:12:59.143Z,276.10
2018-02-25T19:15:26.598Z,481.08
2018-02-25T19:17:54.055Z,378.62
2018-02-25T19:20:21.508Z,223.73
2018-02-25T19:22:48.954Z,476.77
2018-02-25T19:25:16.406Z,314.27
2018-02-25T19:27:44.625Z,473.80
2018-02-25T19:30:12.082Z,360.77
2018-02-25T19:32:39.529Z,326.83
2018-02-25T19:35:06.981Z,265.08
2018-02-25T19:37:40.212Z,136.02
2018-02-25T19:40:07.653Z,211.37
2018-02-25T19:42:35.107Z,159.90
2018-02-25T19:45:02.560Z,381.27
2018-02-25T19:47:30.783Z,399.73
2018-02-25T19:49:59.001Z,477.02
2018-02-25T19:52:26.451Z,240.02
2018-02-25T19:54:53.955Z,200.50
2018-02-25T19:57:21.357Z,202.18
2018-02-25T19:59:48.824Z,476.58
2018-02-25T20:02:16.272Z,200.55
2018-02-25T20:04:43.724Z,350.65
2018-02-25T20:07:11.586Z,255.02
2018-02-25T20:09:39.048Z,359.23
2018-02-25T20:12:06.495Z,272.73
2018-02-25T20:14:33.954Z,310.17
2018-02-25T20:17:01.411Z,240.65
2018-02-25T20:19:28.866Z,313.02
2018-02-25T20:21:56.311Z,83.30
2018-02-25T20:24:24.537Z,470.25
2018-02-25T20:26:51.990Z,474.42
2018-02-25T20:29:19.458Z,295.10
2018-02-25T20:31:46.959Z,113.25
2018-02-25T20:34:15.176Z,275.42
2018-02-25T20:36:42.623Z,382.02
2018-02-25T20:39:10.081Z,477.27
2018-02-25T20:41:37.525Z,231.35
2018-02-25T20:44:04.980Z,328.55
2018-02-25T20:46:32.438Z,475.10
2018-02-25T20:48:59.920Z,335.90
2018-02-25T20:51:27.375Z,465.48
2018-02-25T20:53:54.867Z,362.23
2018-02-25T20:56:22.641Z,209.73
2018-02-25T20:58:50.419Z,304.23
2018-02-25T21:01:17.872Z,180.15
2018-02-25T21:03:46.079Z,114.85
2018-02-25T21:06:13.534Z,379.27
2018-02-25T21:08:40.985Z,201.10
2018-02-25T21:11:08.444Z,171.15
2018-02-25T21:13:35.988Z,296.50
2018-02-25T21:16:03.440Z,351.62
2018-02-25T21:18:30.882Z,294.92
2018-02-25T21:20:59.109Z,218.05
2018-02-25T21:23:26.555Z,347.55
2018-02-25T21:25:54.007Z,43.55
2018-02-25T21:28:21.458Z,306.50
2018-02-25T21:30:48.918Z,157.55
2018-02-25T21:33:16.371Z,183.07
2018-02-25T21:35:43.823Z,275.23
2018-02-25T21:38:11.270Z,178.85
2018-02-25T21:40:38.738Z,139.85
2018-02-25T21:43:06.175Z,454.48
2018-02-25T21:45:33.631Z,138.25
2018-02-25T21:48:01.080Z,236.90
2018-02-25T21:50:29.304Z,260.67
2018-02-25T21:52:56.743Z,383.05
2018-02-25T21:55:24.195Z,333.85
2018-02-25T21:57:57.411Z,65.80
2018-02-25T22:03:28.466Z,344.87
2018-02-25T22:05:55.924Z,328.45
2018-02-25T22:08:23.373Z,104.93
2018-02-25T22:10:50.839Z,243.52
2018-02-25T22:13:18.295Z,120.43
2018-02-25T22:15:45.744Z,279.10
2018-02-25T22:18:13.192Z,389.67
2018-02-25T22:20:40.672Z,295.42
2018-02-25T22:23:08.121Z,256.73
2018-02-25T22:25:36.570Z,169.18
2018-02-25T22:28:04.016Z,345.05
2018-02-25T22:30:31.477Z,307.80
2018-02-25T22:32:58.928Z,353.60
2018-02-25T22:35:27.230Z,307.50
2018-02-25T22:37:54.706Z,460.63
2018-02-25T22:40:22.172Z,299.33
2018-02-25T22:42:49.729Z,292.73
2018-02-25T22:45:17.294Z,132.70
2018-02-25T22:47:44.736Z,188.82
2018-02-25T22:50:12.205Z,166.30
2018-02-25T22:52:39.652Z,218.93
2018-02-25T22:55:07.123Z,169.10
2018-02-25T22:57:34.573Z,273.15
2018-02-25T23:00:02.055Z,450.70
2018-02-25T23:02:29.504Z,384.67
2018-02-25T23:04:56.956Z,326.27
2018-02-25T23:07:24.411Z,199.52
2018-02-25T23:09:51.862Z,321.95
2018-02-25T23:12:19.323Z,344.87
2018-02-25T23:14:46.763Z,304.63
2018-02-25T23:17:14.218Z,159.63
2018-02-25T23:19:41.667Z,304.48
2018-02-25T23:22:09.214Z,288.02
2018-02-25T23:24:36.646Z,279.95
2018-02-25T23:27:04.120Z,240.05
2018-02-25T23:29:31.562Z,375.27
2018-02-25T23:31:59.031Z,352.98
2018-02-25T23:34:26.469Z,107.00
2018-02-25T23:36:54.692Z,191.23
2018-02-25T23:39:22.131Z,248.48
2018-02-25T23:41:49.590Z,118.20
2018-02-25T23:44:17.036Z,296.23
2018-02-25T23:46:44.492Z,218.77
2018-02-25T23:49:11.940Z,85.57
2018-02-25T23:51:39.403Z,61.42
2018-02-25T23:54:06.845Z,298.85
2018-02-25T23:56:34.299Z,229.43
2018-02-25T23:59:02.531Z,284.77
